createdAt,value
2023-01-09T00:01:16.803Z,6.32
2023-01-09T00:03:44.543Z,6.34
2023-01-09T00:06:12.848Z,6.41
2023-01-09T00:08:40.557Z,6.36
2023-01-09T00:11:09.038Z,6.35
2023-01-09T00:13:37.390Z,6.31
2023-01-09T00:16:07.424Z,6.37
2023-01-09T00:18:35.651Z,6.35
2023-01-09T00:21:04.706Z,6.36
2023-01-09T00:23:32.370Z,6.40
2023-01-09T00:26:05.514Z,6.48
2023-01-09T00:28:33.834Z,6.43
2023-01-09T00:31:03.380Z,6.45
2023-01-09T00:33:34.725Z,6.44
2023-01-09T00:36:03.267Z,6.46
2023-01-09T00:38:31.120Z,6.43
2023-01-09T00:41:00.203Z,6.44
2023-01-09T00:43:31.650Z,6.47
2023-01-09T00:46:01.056Z,6.43
2023-01-09T00:48:30.224Z,6.38
2023-01-09T00:51:00.669Z,6.37
2023-01-09T00:53:32.670Z,6.47
2023-01-09T00:56:06.323Z,6.55
2023-01-09T00:58:36.170Z,6.46
2023-01-09T01:01:04.323Z,6.43
2023-01-09T01:03:33.031Z,6.51
2023-01-09T01:06:19.812Z,6.55
2023-01-09T01:08:47.665Z,6.62
2023-01-09T01:11:15.773Z,6.62
2023-01-09T01:13:44.243Z,6.61
2023-01-09T01:16:13.852Z,6.65
2023-01-09T01:18:42.963Z,6.72
2023-01-09T01:21:13.985Z,6.76
2023-01-09T01:23:42.614Z,6.78
2023-01-09T01:26:12.153Z,6.87
2023-01-09T01:28:40.421Z,6.91
2023-01-09T01:31:08.262Z,6.91
2023-01-09T01:33:36.478Z,6.96
2023-01-09T01:36:07.205Z,7.03
2023-01-09T01:38:37.208Z,6.96
2023-01-09T01:41:06.937Z,6.92
2023-01-09T01:43:51.101Z,6.87
2023-01-09T01:46:18.921Z,6.77
2023-01-09T01:48:47.892Z,6.75
2023-01-09T01:51:16.957Z,6.74
2023-01-09T01:53:50.719Z,6.72
2023-01-09T01:56:21.391Z,6.65
2023-01-09T01:58:53.136Z,6.75
2023-01-09T02:01:23.343Z,6.79
2023-01-09T02:03:53.742Z,6.88
2023-01-09T02:06:21.604Z,6.99
2023-01-09T02:08:51.511Z,7.04
2023-01-09T02:11:21.784Z,7.13
2023-01-09T02:13:50.534Z,7.19
2023-01-09T02:16:37.946Z,7.23
2023-01-09T02:19:15.812Z,7.27
2023-01-09T02:22:01.365Z,7.25
2023-01-09T02:24:58.489Z,7.25
2023-01-09T02:27:54.384Z,7.26
2023-01-09T02:30:45.549Z,7.31
2023-01-09T02:33:25.788Z,7.32
2023-01-09T02:36:09.602Z,7.23
2023-01-09T02:38:49.210Z,7.29
2023-01-09T02:41:22.437Z,7.32
2023-01-09T02:44:18.101Z,7.30
2023-01-09T02:46:47.293Z,7.23
2023-01-09T02:49:17.726Z,7.21
2023-01-09T02:51:52.597Z,7.21
2023-01-09T02:54:32.878Z,7.13
2023-01-09T02:57:18.760Z,7.15
2023-01-09T03:00:02.792Z,7.13
2023-01-09T03:02:46.648Z,7.14
2023-01-09T03:05:22.527Z,7.07
2023-01-09T03:07:57.955Z,7.03
2023-01-09T03:10:31.577Z,6.93
2023-01-09T03:13:03.024Z,7.02
2023-01-09T03:15:34.511Z,7.07
2023-01-09T03:18:06.786Z,6.99
2023-01-09T03:20:35.105Z,7.00
2023-01-09T03:23:05.874Z,6.87
2023-01-09T03:25:34.021Z,6.94
2023-01-09T03:28:03.959Z,6.95
2023-01-09T03:30:33.281Z,7.08
2023-01-09T03:33:01.731Z,7.06
2023-01-09T03:35:31.517Z,6.97
2023-01-09T03:37:59.986Z,7.10
2023-01-09T03:40:27.924Z,7.18
2023-01-09T03:42:55.575Z,7.15
2023-01-09T03:45:23.766Z,7.24
2023-01-09T03:47:53.053Z,7.24
2023-01-09T03:50:21.463Z,7.37
2023-01-09T03:52:50.540Z,7.39
2023-01-09T03:55:18.561Z,7.50
2023-01-09T03:57:46.287Z,7.52
2023-01-09T04:00:15.129Z,7.46
2023-01-09T04:02:43.159Z,7.59
2023-01-09T04:05:11.092Z,7.76
2023-01-09T04:07:38.957Z,7.82
2023-01-09T04:10:09.867Z,7.79
2023-01-09T04:12:37.573Z,7.64
2023-01-09T04:15:06.022Z,7.68
2023-01-09T04:17:33.711Z,7.21
2023-01-09T04:20:02.121Z,7.35
2023-01-09T04:22:31.317Z,7.46
2023-01-09T04:24:59.271Z,7.43
2023-01-09T04:27:28.339Z,7.47
2023-01-09T04:29:56.368Z,7.20
2023-01-09T04:32:24.175Z,7.36
2023-01-09T04:34:52.493Z,7.15
2023-01-09T04:37:20.343Z,7.20
2023-01-09T04:39:48.735Z,7.35
2023-01-09T04:42:16.679Z,7.41
2023-01-09T04:44:46.193Z,7.49
2023-01-09T04:47:14.452Z,7.55
2023-01-09T04:49:42.790Z,7.47
2023-01-09T04:52:10.449Z,7.52
2023-01-09T04:54:39.723Z,7.49
2023-01-09T04:57:07.671Z,7.32
2023-01-09T04:59:35.718Z,7.17
2023-01-09T05:02:06.003Z,7.23
2023-01-09T05:04:34.526Z,7.04
2023-01-09T05:07:02.188Z,7.19
2023-01-09T05:09:30.419Z,7.10
2023-01-09T05:12:00.536Z,6.98
2023-01-09T05:14:29.367Z,7.00
2023-01-09T05:16:57.546Z,6.98
2023-01-09T05:19:26.829Z,6.86
2023-01-09T05:21:55.584Z,7.10
2023-01-09T05:24:23.234Z,7.06
2023-01-09T05:26:51.549Z,7.20
2023-01-09T05:29:19.231Z,7.09
2023-01-09T05:31:48.016Z,7.00
2023-01-09T05:34:15.726Z,7.13
2023-01-09T05:36:45.531Z,6.96
2023-01-09T05:39:13.457Z,6.96
2023-01-09T05:41:42.360Z,6.87
2023-01-09T05:44:10.018Z,7.01
2023-01-09T05:46:37.712Z,7.00
2023-01-09T05:49:05.457Z,6.59
2023-01-09T05:51:33.171Z,6.83
2023-01-09T05:54:02.869Z,6.70
2023-01-09T05:56:30.810Z,6.67
2023-01-09T05:58:58.510Z,6.71
2023-01-09T06:01:26.659Z,6.43
2023-01-09T06:03:54.407Z,6.50
2023-01-09T06:06:24.260Z,6.56
2023-01-09T06:08:52.001Z,6.46
2023-01-09T06:11:21.155Z,6.50
2023-01-09T06:13:49.453Z,6.46
2023-01-09T06:16:17.634Z,6.42
2023-01-09T06:18:45.347Z,6.50
2023-01-09T06:21:13.147Z,6.58
2023-01-09T06:23:40.836Z,6.54
2023-01-09T06:26:08.918Z,6.41
2023-01-09T06:28:37.902Z,6.29
2023-01-09T06:31:06.051Z,6.51
2023-01-09T06:33:33.878Z,6.35
2023-01-09T06:36:01.807Z,6.41
2023-01-09T06:38:29.461Z,6.09
2023-01-09T06:40:57.199Z,6.17
2023-01-09T06:43:24.859Z,5.86
2023-01-09T06:45:54.487Z,5.40
2023-01-09T06:48:22.266Z,5.28
2023-01-09T06:50:49.892Z,5.07
2023-01-09T06:53:17.851Z,4.55
2023-01-09T06:55:45.676Z,4.28
2023-01-09T06:58:14.223Z,4.34
2023-01-09T07:00:41.985Z,4.23
2023-01-09T07:03:11.840Z,4.25
2023-01-09T07:05:41.400Z,4.01
2023-01-09T07:08:10.551Z,4.17
2023-01-09T07:10:38.228Z,4.05
2023-01-09T07:13:06.234Z,4.01
2023-01-09T07:15:33.888Z,4.09
2023-01-09T07:18:01.910Z,4.18
2023-01-09T07:20:30.959Z,4.45
2023-01-09T07:22:58.960Z,4.18
2023-01-09T07:25:26.920Z,4.23
2023-01-09T07:27:54.576Z,4.20
2023-01-09T07:30:22.233Z,4.50
2023-01-09T07:32:50.260Z,4.48
2023-01-09T07:35:18.131Z,4.52
2023-01-09T07:37:47.771Z,4.56
2023-01-09T07:40:15.531Z,4.44
2023-01-09T07:42:43.275Z,4.52
2023-01-09T07:45:11.966Z,4.52
2023-01-09T07:47:40.669Z,4.87
2023-01-09T07:50:10.013Z,4.88
2023-01-09T07:52:38.694Z,5.08
2023-01-09T07:55:09.736Z,5.23
2023-01-09T07:57:37.716Z,5.28
2023-01-09T08:00:06.951Z,5.19
2023-01-09T08:02:40.648Z,5.20
2023-01-09T08:05:13.631Z,5.24
2023-01-09T08:07:42.073Z,5.40
2023-01-09T08:10:11.973Z,5.33
2023-01-09T08:12:44.505Z,5.65
2023-01-09T08:15:12.813Z,5.49
2023-01-09T08:17:43.075Z,5.36
2023-01-09T08:20:12.174Z,5.43
2023-01-09T08:22:40.505Z,5.19
2023-01-09T08:25:11.954Z,5.12
2023-01-09T08:27:41.969Z,5.14
2023-01-09T08:30:10.863Z,5.30
2023-01-09T08:32:38.611Z,5.39
2023-01-09T08:35:07.474Z,5.48
2023-01-09T08:37:35.519Z,5.61
2023-01-09T08:40:03.470Z,5.53
2023-01-09T08:42:48.707Z,5.54
2023-01-09T08:45:35.140Z,5.41
2023-01-09T08:48:02.816Z,5.40
2023-01-09T08:50:30.480Z,5.46
2023-01-09T08:52:58.450Z,5.39
2023-01-09T08:55:26.431Z,5.37
2023-01-09T08:57:55.664Z,5.29
2023-01-09T09:00:25.968Z,5.35
2023-01-09T09:02:55.065Z,5.42
2023-01-09T09:05:24.401Z,5.53
2023-01-09T09:07:53.915Z,5.50
2023-01-09T09:10:23.451Z,5.53
2023-01-09T09:12:52.499Z,5.65
2023-01-09T09:15:24.308Z,5.45
2023-01-09T09:17:55.195Z,5.52
2023-01-09T09:20:23.383Z,5.31
2023-01-09T09:22:51.461Z,5.54
2023-01-09T09:25:20.173Z,5.48
2023-01-09T09:27:48.372Z,5.41
2023-01-09T09:30:19.030Z,5.61
2023-01-09T09:32:47.473Z,5.60
2023-01-09T09:35:19.142Z,5.68
2023-01-09T09:37:54.313Z,5.72
2023-01-09T09:40:44.487Z,5.84
2023-01-09T09:43:58.330Z,5.84
2023-01-09T09:46:38.738Z,5.94
2023-01-09T09:49:14.261Z,5.86
2023-01-09T09:51:56.949Z,6.10
2023-01-09T09:54:28.471Z,5.82
2023-01-09T09:56:59.055Z,5.94
2023-01-09T09:59:30.977Z,5.93
2023-01-09T10:02:01.479Z,5.97
2023-01-09T10:04:33.452Z,6.13
2023-01-09T10:07:06.116Z,6.26
2023-01-09T10:09:46.874Z,6.19
2023-01-09T10:12:27.097Z,6.08
2023-01-09T10:14:55.999Z,6.15
2023-01-09T10:17:44.482Z,6.23
2023-01-09T10:20:38.553Z,6.51
2023-01-09T10:23:21.360Z,6.48
2023-01-09T10:25:57.331Z,6.71
2023-01-09T10:28:49.786Z,6.74
2023-01-09T10:31:23.309Z,6.72
2023-01-09T10:33:59.169Z,6.76
2023-01-09T10:37:05.596Z,6.75
2023-01-09T10:39:40.985Z,6.73
2023-01-09T10:42:21.494Z,6.86
2023-01-09T10:44:55.256Z,6.82
2023-01-09T10:47:27.026Z,6.80
2023-01-09T10:49:56.863Z,6.74
2023-01-09T10:52:31.046Z,6.80
2023-01-09T10:55:05.000Z,6.74
2023-01-09T10:57:42.401Z,7.00
2023-01-09T11:00:18.115Z,7.07
2023-01-09T11:05:36.757Z,7.19
2023-01-09T11:08:12.874Z,7.26
2023-01-09T11:10:50.567Z,7.24
2023-01-09T11:13:22.501Z,7.29
2023-01-09T11:16:05.788Z,7.27
2023-01-09T11:18:34.783Z,7.11
2023-01-09T11:21:29.213Z,7.11
2023-01-09T11:23:58.792Z,7.06
2023-01-09T11:26:29.505Z,7.27
2023-01-09T11:29:08.922Z,7.25
2023-01-09T11:31:36.830Z,7.86
2023-01-09T11:34:05.380Z,7.89
2023-01-09T11:36:33.387Z,7.98
2023-01-09T11:39:02.694Z,7.79
2023-01-09T11:41:34.856Z,7.83
2023-01-09T11:44:05.233Z,7.61
2023-01-09T11:46:38.452Z,7.56
2023-01-09T11:49:22.603Z,7.47
2023-01-09T11:52:14.591Z,7.32
2023-01-09T11:54:46.343Z,7.61
2023-01-09T11:57:15.448Z,7.68
2023-01-09T11:59:43.494Z,7.40
2023-01-09T12:02:39.563Z,7.52
2023-01-09T12:05:17.572Z,7.54
2023-01-09T12:08:02.983Z,7.70
2023-01-09T12:10:45.959Z,7.86
2023-01-09T12:13:30.733Z,7.90
2023-01-09T12:16:06.481Z,8.08
2023-01-09T12:18:51.043Z,8.09
2023-01-09T12:21:32.188Z,7.95
2023-01-09T12:24:45.193Z,8.05
2023-01-09T12:27:25.146Z,8.14
2023-01-09T12:30:19.825Z,7.52
2023-01-09T12:33:01.626Z,7.70
2023-01-09T12:35:36.904Z,7.96
2023-01-09T12:38:21.723Z,7.85
2023-01-09T12:41:24.940Z,7.98
2023-01-09T12:44:27.361Z,7.92
2023-01-09T12:47:15.787Z,7.94
2023-01-09T12:49:53.168Z,7.75
2023-01-09T12:52:26.285Z,7.84
2023-01-09T12:54:58.264Z,7.78
2023-01-09T12:57:31.563Z,7.89
2023-01-09T13:00:03.826Z,7.82
2023-01-09T13:02:37.488Z,8.02
2023-01-09T13:05:11.832Z,7.92
2023-01-09T13:07:43.336Z,7.99
2023-01-09T13:10:23.433Z,7.87
2023-01-09T13:12:52.481Z,7.84
2023-01-09T13:15:28.772Z,7.83
2023-01-09T13:18:05.111Z,7.94
2023-01-09T13:20:39.007Z,7.96
2023-01-09T13:23:07.918Z,7.89
2023-01-09T13:25:43.343Z,7.80
2023-01-09T13:28:18.754Z,7.99
2023-01-09T13:31:20.796Z,7.88
2023-01-09T13:33:52.947Z,8.08
2023-01-09T13:36:27.573Z,8.19
2023-01-09T13:38:57.517Z,8.30
2023-01-09T13:41:45.860Z,8.28
2023-01-09T13:44:28.588Z,8.28
2023-01-09T13:46:58.955Z,8.36
2023-01-09T13:50:15.119Z,8.25
2023-01-09T13:52:45.176Z,8.00
2023-01-09T13:55:36.259Z,8.03
2023-01-09T13:58:25.251Z,7.79
2023-01-09T14:00:59.053Z,7.92
2023-01-09T14:03:32.629Z,7.95
2023-01-09T14:06:12.806Z,7.62
2023-01-09T14:08:42.937Z,7.34
2023-01-09T14:11:19.729Z,6.99
2023-01-09T14:13:53.085Z,7.19
2023-01-09T14:16:24.874Z,6.87
2023-01-09T14:18:54.571Z,6.87
2023-01-09T14:21:22.756Z,6.98
2023-01-09T14:24:01.273Z,7.24
2023-01-09T14:26:45.280Z,7.39
2023-01-09T14:29:43.535Z,7.56
2023-01-09T14:32:46.342Z,7.43
2023-01-09T14:35:21.009Z,7.49
2023-01-09T14:38:00.679Z,7.60
2023-01-09T14:40:31.753Z,7.43
2023-01-09T14:43:09.505Z,7.25
2023-01-09T14:45:40.345Z,7.11
2023-01-09T14:48:13.059Z,7.01
2023-01-09T14:50:45.913Z,6.80
2023-01-09T14:53:18.094Z,6.90
2023-01-09T14:55:52.588Z,6.76
2023-01-09T14:58:24.738Z,6.64
2023-01-09T15:00:58.227Z,6.72
2023-01-09T15:03:29.251Z,6.66
2023-01-09T15:05:58.331Z,6.55
2023-01-09T15:08:28.731Z,6.70
2023-01-09T15:11:00.227Z,6.61
2023-01-09T15:13:32.389Z,6.52
2023-01-09T15:16:01.824Z,6.65
2023-01-09T15:18:33.179Z,6.36
2023-01-09T15:21:04.131Z,6.38
2023-01-09T15:23:32.416Z,6.26
2023-01-09T15:26:23.947Z,6.41
2023-01-09T15:28:53.127Z,6.23
2023-01-09T15:31:24.949Z,6.27
2023-01-09T15:33:54.101Z,6.48
2023-01-09T15:36:25.966Z,6.46
2023-01-09T15:38:55.066Z,6.52
2023-01-09T15:41:45.761Z,6.45
2023-01-09T15:44:17.342Z,6.29
2023-01-09T15:46:50.293Z,6.21
2023-01-09T15:49:19.017Z,6.31
2023-01-09T15:51:48.371Z,6.12
2023-01-09T15:54:18.050Z,6.12
2023-01-09T15:56:48.068Z,5.78
2023-01-09T15:59:27.134Z,5.81
2023-01-09T16:02:15.888Z,5.77
2023-01-09T16:04:43.698Z,5.93
2023-01-09T16:07:16.059Z,5.83
2023-01-09T16:09:47.470Z,5.83
2023-01-09T16:12:21.234Z,5.86
2023-01-09T16:14:52.574Z,6.04
2023-01-09T16:17:23.864Z,5.67
2023-01-09T16:19:53.792Z,5.75
2023-01-09T16:22:24.435Z,5.55
2023-01-09T16:24:54.417Z,5.55
2023-01-09T16:27:26.610Z,5.36
2023-01-09T16:29:57.950Z,5.53
2023-01-09T16:32:29.693Z,5.68
2023-01-09T16:34:59.960Z,5.67
2023-01-09T16:37:29.009Z,5.50
2023-01-09T16:40:32.029Z,5.39
2023-01-09T16:43:01.370Z,5.50
2023-01-09T16:45:31.988Z,5.47
2023-01-09T16:48:00.529Z,5.41
2023-01-09T16:50:28.383Z,5.31
2023-01-09T16:52:57.224Z,5.47
2023-01-09T16:55:24.869Z,5.36
2023-01-09T16:57:52.600Z,5.57
2023-01-09T17:00:22.550Z,5.31
2023-01-09T17:02:50.574Z,5.24
2023-01-09T17:05:18.220Z,5.46
2023-01-09T17:07:46.736Z,5.42
2023-01-09T17:10:21.203Z,5.25
2023-01-09T17:12:49.724Z,5.34
2023-01-09T17:15:17.864Z,5.39
2023-01-09T17:17:48.034Z,5.40
2023-01-09T17:20:18.013Z,5.33
2023-01-09T17:22:46.488Z,5.25
2023-01-09T17:25:33.462Z,5.49
2023-01-09T17:28:19.552Z,5.34
2023-01-09T17:30:47.360Z,5.30
2023-01-09T17:33:19.639Z,5.46
2023-01-09T17:35:47.431Z,5.19
2023-01-09T17:38:16.315Z,5.06
2023-01-09T17:40:45.116Z,5.18
2023-01-09T17:43:13.282Z,5.00
2023-01-09T17:45:42.492Z,4.95
2023-01-09T17:48:20.869Z,4.99
2023-01-09T17:50:49.921Z,5.01
2023-01-09T17:53:20.936Z,5.12
2023-01-09T17:55:48.986Z,4.77
2023-01-09T17:58:25.867Z,4.76
2023-01-09T18:00:53.828Z,4.70
2023-01-09T18:03:24.351Z,4.61
2023-01-09T18:05:52.360Z,4.81
2023-01-09T18:08:20.903Z,4.84
2023-01-09T18:10:49.108Z,4.83
2023-01-09T18:13:18.028Z,4.90
2023-01-09T18:15:46.441Z,4.71
2023-01-09T18:18:16.946Z,4.74
2023-01-09T18:20:46.474Z,4.73
2023-01-09T18:23:16.734Z,4.73
2023-01-09T18:25:44.607Z,4.47
2023-01-09T18:28:15.456Z,4.78
2023-01-09T18:30:45.105Z,4.77
2023-01-09T18:33:14.059Z,4.56
2023-01-09T18:35:41.964Z,4.71
2023-01-09T18:38:12.206Z,4.75
2023-01-09T18:40:41.579Z,4.76
2023-01-09T18:43:11.607Z,4.72
2023-01-09T18:45:39.832Z,4.80
2023-01-09T18:48:08.441Z,4.64
2023-01-09T18:50:36.071Z,4.66
2023-01-09T18:53:04.085Z,4.78
2023-01-09T18:55:33.499Z,4.67
2023-01-09T18:58:01.290Z,4.65
2023-01-09T19:00:29.210Z,4.68
2023-01-09T19:02:56.954Z,4.71
2023-01-09T19:05:25.689Z,4.75
2023-01-09T19:07:54.022Z,4.82
2023-01-09T19:10:22.063Z,4.79
2023-01-09T19:12:51.038Z,4.80
2023-01-09T19:15:19.064Z,4.64
2023-01-09T19:17:46.904Z,4.48
2023-01-09T19:20:14.889Z,4.43
2023-01-09T19:22:42.561Z,4.64
2023-01-09T19:25:12.412Z,4.47
2023-01-09T19:27:40.089Z,4.68
2023-01-09T19:30:11.272Z,4.38
2023-01-09T19:32:40.552Z,4.43
2023-01-09T19:35:08.940Z,4.42
2023-01-09T19:37:37.233Z,4.54
2023-01-09T19:40:05.881Z,4.65
2023-01-09T19:42:33.541Z,4.56
2023-01-09T19:45:01.200Z,4.70
2023-01-09T19:47:35.425Z,4.68
2023-01-09T19:50:04.982Z,4.39
2023-01-09T19:52:33.088Z,4.59
2023-01-09T19:55:00.927Z,4.64
2023-01-09T19:57:28.576Z,4.67
2023-01-09T19:59:56.605Z,4.75
2023-01-09T20:02:24.449Z,4.89
2023-01-09T20:04:53.461Z,4.63
2023-01-09T20:07:21.256Z,4.83
2023-01-09T20:09:49.836Z,4.90
2023-01-09T20:12:17.469Z,4.97
2023-01-09T20:14:45.260Z,4.87
2023-01-09T20:17:12.940Z,4.79
2023-01-09T20:19:40.594Z,4.74
2023-01-09T20:22:09.888Z,4.89
2023-01-09T20:24:39.008Z,4.80
2023-01-09T20:27:06.961Z,4.84
2023-01-09T20:29:34.929Z,4.82
2023-01-09T20:32:05.514Z,4.84
2023-01-09T20:34:33.736Z,4.90
2023-01-09T20:37:01.537Z,4.55
2023-01-09T20:39:31.008Z,4.55
2023-01-09T20:41:58.690Z,4.78
2023-01-09T20:44:26.392Z,4.68
2023-01-09T20:46:54.017Z,4.48
2023-01-09T20:49:22.383Z,4.49
2023-01-09T20:51:52.259Z,4.42
2023-01-09T20:54:22.224Z,4.44
2023-01-09T20:56:53.627Z,4.17
2023-01-09T20:59:22.249Z,4.34
2023-01-09T21:01:50.392Z,4.35
2023-01-09T21:04:19.511Z,4.35
2023-01-09T21:06:49.755Z,4.45
2023-01-09T21:09:17.786Z,4.37
2023-01-09T21:11:45.471Z,4.40
2023-01-09T21:14:14.980Z,4.34
2023-01-09T21:16:45.460Z,4.03
2023-01-09T21:19:19.539Z,4.05
2023-01-09T21:21:47.350Z,4.05
2023-01-09T21:24:14.993Z,4.21
2023-01-09T21:26:43.374Z,4.19
2023-01-09T21:29:15.482Z,4.15
2023-01-09T21:31:44.361Z,4.14
2023-01-09T21:34:14.563Z,4.24
2023-01-09T21:36:45.307Z,4.17
2023-01-09T21:39:13.004Z,4.27
2023-01-09T21:41:58.575Z,4.32
2023-01-09T21:44:45.421Z,4.20
2023-01-09T21:47:13.081Z,4.15
2023-01-09T21:49:41.743Z,4.22
2023-01-09T21:52:10.825Z,3.92
2023-01-09T21:54:38.587Z,3.91
2023-01-09T21:57:06.537Z,4.03
2023-01-09T21:59:35.565Z,4.05
2023-01-09T22:02:03.277Z,4.11
2023-01-09T22:04:32.329Z,4.25
2023-01-09T22:07:00.293Z,4.35
2023-01-09T22:09:28.287Z,4.11
2023-01-09T22:11:57.828Z,4.12
2023-01-09T22:14:25.519Z,4.26
2023-01-09T22:16:55.527Z,4.37
2023-01-09T22:19:23.191Z,4.35
2023-01-09T22:21:51.219Z,4.42
2023-01-09T22:24:21.609Z,4.46
2023-01-09T22:26:50.113Z,4.45
2023-01-09T22:29:18.137Z,4.50
2023-01-09T22:31:46.038Z,4.54
2023-01-09T22:34:18.304Z,4.50
2023-01-09T22:36:47.853Z,4.65
2023-01-09T22:39:19.348Z,4.26
2023-01-09T22:41:51.905Z,4.39
2023-01-09T22:44:19.580Z,4.51
2023-01-09T22:46:47.942Z,4.47
2023-01-09T22:49:16.963Z,4.26
2023-01-09T22:51:45.104Z,4.60
2023-01-09T22:54:12.741Z,4.73
2023-01-09T22:56:40.752Z,4.92
2023-01-09T22:59:08.630Z,4.78
2023-01-09T23:01:36.890Z,4.40
2023-01-09T23:04:04.889Z,4.64
2023-01-09T23:06:34.274Z,4.49
2023-01-09T23:09:01.906Z,4.63
2023-01-09T23:11:49.828Z,4.65
2023-01-09T23:14:17.688Z,4.43
2023-01-09T23:16:45.783Z,4.40
2023-01-09T23:19:15.565Z,4.50
2023-01-09T23:21:46.463Z,4.68
2023-01-09T23:24:15.412Z,4.68
2023-01-09T23:26:43.598Z,4.65
2023-01-09T23:29:12.376Z,4.56
2023-01-09T23:31:40.166Z,4.71
2023-01-09T23:34:08.267Z,4.74
2023-01-09T23:36:36.144Z,4.78
2023-01-09T23:39:08.857Z,4.66
2023-01-09T23:41:54.679Z,4.81
2023-01-09T23:44:22.574Z,4.97
2023-01-09T23:46:50.283Z,4.91
2023-01-09T23:49:18.248Z,4.88
2023-01-09T23:51:46.740Z,4.84
2023-01-09T23:54:16.259Z,4.82
2023-01-09T23:56:44.215Z,4.76
2023-01-09T23:59:13.797Z,4.90
